Time;durP1;ratioP1;P1;durP2;ratioP2;P2;SDS_P1;SDS_P2;PMS_P1;PMS_P2;Temp;Humidity;BMP_temperature;BMP_pressure;BME280_temperature;BME280_humidity;BME280_pressure;Samples;Min_cycle;Max_cycle;Signal;HPM_P1;HPM_P2
2022/12/11 00:01:36;;;;;;;;;21.25;16.75;;;;;;;;5062249;28;61985;-78
2022/12/11 00:04:01;;;;;;;;;20.00;12.00;;;;;;;;5061380;28;61683;-78
2022/12/11 00:06:27;;;;;;;;;20.75;16.00;;;;;;;;5062093;28;61932;-78
2022/12/11 00:08:53;;;;;;;;;16.50;12.25;;;;;;;;5062037;28;62047;-78
2022/12/11 00:11:19;;;;;;;;;14.75;12.00;;;;;;;;5061991;28;62008;-78
2022/12/11 00:13:45;;;;;;;;;23.75;12.00;;;;;;;;5061427;28;62090;-78
2022/12/11 00:16:10;;;;;;;;;11.50;10.75;;;;;;;;5060951;28;62048;-78
2022/12/11 00:18:36;;;;;;;;;23.25;13.75;;;;;;;;5060761;28;61888;-78
2022/12/11 00:21:03;;;;;;;;;17.25;15.00;;;;;;;;5060932;28;62205;-78
2022/12/11 00:23:28;;;;;;;;;22.75;12.75;;;;;;;;5061376;28;61858;-78
2022/12/11 00:25:54;;;;;;;;;20.25;11.75;;;;;;;;5061947;28;62192;-78
2022/12/11 00:28:19;;;;;;;;;18.50;12.50;;;;;;;;5061592;28;61951;-78
2022/12/11 00:30:45;;;;;;;;;20.25;14.00;;;;;;;;5061726;28;61878;-78
2022/12/11 00:33:10;;;;;;;;;9.75;3.25;;;;;;;;5060831;28;61928;-78
2022/12/11 00:35:43;;;;;;;;;18.00;14.50;;;;;;;;5061757;28;62250;-78
2022/12/11 00:38:12;;;;;;;;;24.25;20.00;;;;;;;;5061681;28;61780;-78
2022/12/11 00:40:38;;;;;;;;;29.25;15.00;;;;;;;;5062012;28;61868;-78
2022/12/11 00:43:03;;;;;;;;;17.75;15.50;;;;;;;;5060868;28;63237;-78
2022/12/11 00:45:28;;;;;;;;;16.50;15.50;;;;;;;;5061274;28;61913;-78
2022/12/11 00:47:53;;;;;;;;;20.75;18.50;;;;;;;;5060357;28;61894;-78
2022/12/11 00:50:19;;;;;;;;;21.50;14.50;;;;;;;;5061728;28;61677;-78
2022/12/11 00:52:44;;;;;;;;;23.25;11.50;;;;;;;;5061055;28;61815;-78
2022/12/11 00:55:10;;;;;;;;;22.00;14.25;;;;;;;;5059745;28;61694;-78
2022/12/11 00:57:35;;;;;;;;;19.50;16.50;;;;;;;;5061450;28;61857;-78
2022/12/11 01:00:01;;;;;;;;;13.25;11.75;;;;;;;;5059972;28;61958;-78
2022/12/11 01:02:26;;;;;;;;;15.50;12.75;;;;;;;;5058711;28;63678;-78
2022/12/11 01:04:51;;;;;;;;;18.25;12.00;;;;;;;;5059560;28;61816;-78
2022/12/11 01:07:16;;;;;;;;;24.75;14.50;;;;;;;;5061348;28;61812;-78
2022/12/11 01:12:27;;;;;;;;;18.25;15.00;;;;;;;;5060461;28;61819;-78
2022/12/11 01:14:52;;;;;;;;;15.75;13.25;;;;;;;;5059710;28;62012;-78
2022/12/11 01:17:18;;;;;;;;;22.50;16.00;;;;;;;;5061244;28;61852;-78
2022/12/11 01:19:43;;;;;;;;;16.50;12.25;;;;;;;;5061475;28;62221;-78
2022/12/11 01:22:08;;;;;;;;;11.25;8.75;;;;;;;;5060332;28;63102;-78
2022/12/11 01:24:33;;;;;;;;;11.25;8.50;;;;;;;;5061151;28;61787;-78
2022/12/11 01:26:59;;;;;;;;;19.00;8.00;;;;;;;;5061924;28;61887;-78
2022/12/11 01:29:24;;;;;;;;;15.75;7.50;;;;;;;;5064617;28;62008;-78
2022/12/11 01:31:49;;;;;;;;;15.50;11.50;;;;;;;;5063414;28;62951;-78
2022/12/11 01:34:14;;;;;;;;;12.25;8.00;;;;;;;;5064338;28;61850;-78
2022/12/11 01:36:40;;;;;;;;;14.50;11.00;;;;;;;;5064506;28;61827;-78
2022/12/11 01:39:05;;;;;;;;;7.25;7.25;;;;;;;;5063254;28;62047;-78
2022/12/11 01:41:30;;;;;;;;;10.75;7.75;;;;;;;;5063775;28;61884;-77
2022/12/11 01:43:56;;;;;;;;;16.00;9.25;;;;;;;;5064607;28;61650;-77
2022/12/11 01:46:21;;;;;;;;;12.00;11.00;;;;;;;;5062237;28;61870;-78
2022/12/11 01:48:46;;;;;;;;;19.25;11.50;;;;;;;;5064524;28;61945;-78
2022/12/11 01:51:12;;;;;;;;;15.75;9.00;;;;;;;;5063763;28;62630;-78
2022/12/11 01:53:39;;;;;;;;;10.50;10.50;;;;;;;;5063992;28;61906;-78
2022/12/11 01:56:07;;;;;;;;;11.75;8.75;;;;;;;;5062946;28;61834;-77
2022/12/11 01:58:34;;;;;;;;;11.75;8.75;;;;;;;;5062604;28;61919;-78
2022/12/11 02:01:00;;;;;;;;;9.50;9.50;;;;;;;;5063473;28;61741;-78
2022/12/11 02:03:26;;;;;;;;;11.25;8.75;;;;;;;;5062293;28;62162;-78
2022/12/11 02:05:51;;;;;;;;;10.25;7.50;;;;;;;;5063960;28;61884;-77
2022/12/11 02:08:16;;;;;;;;;2.50;2.50;;;;;;;;5062468;28;62286;-78
2022/12/11 02:11:00;;;;;;;;;6.00;6.00;;;;;;;;5063348;28;61657;-78
2022/12/11 02:13:32;;;;;;;;;10.50;9.25;;;;;;;;5063807;28;62049;-78
2022/12/11 02:16:09;;;;;;;;;8.50;7.00;;;;;;;;5063732;28;61831;-78
2022/12/11 02:18:46;;;;;;;;;11.00;7.00;;;;;;;;5062475;28;61781;-78
2022/12/11 02:21:31;;;;;;;;;16.00;9.50;;;;;;;;5063164;28;61936;-77
2022/12/11 02:24:05;;;;;;;;;23.75;13.00;;;;;;;;5063642;28;61806;-77
2022/12/11 02:26:49;;;;;;;;;16.00;8.00;;;;;;;;5063679;28;61736;-77
2022/12/11 02:29:37;;;;;;;;;12.00;10.50;;;;;;;;5062438;28;62290;-77
2022/12/11 02:32:23;;;;;;;;;9.00;7.00;;;;;;;;5059098;28;63125;-77
2022/12/11 02:34:54;;;;;;;;;15.25;8.00;;;;;;;;5062568;28;61785;-78
2022/12/11 02:37:22;;;;;;;;;8.00;7.25;;;;;;;;5061923;28;61781;-77
2022/12/11 02:39:49;;;;;;;;;9.25;7.25;;;;;;;;5063300;28;61805;-77
2022/12/11 02:42:15;;;;;;;;;14.25;9.50;;;;;;;;5062663;28;61859;-78
2022/12/11 02:44:42;;;;;;;;;17.00;9.25;;;;;;;;5062845;28;62078;-78
2022/12/11 02:47:11;;;;;;;;;16.75;11.00;;;;;;;;5062160;28;61802;-78
2022/12/11 02:49:37;;;;;;;;;11.50;7.25;;;;;;;;5061639;28;61818;-77
2022/12/11 02:52:05;;;;;;;;;13.75;8.75;;;;;;;;5062753;28;62646;-78
2022/12/11 02:54:32;;;;;;;;;11.00;9.00;;;;;;;;5062893;28;61928;-78
2022/12/11 02:57:26;;;;;;;;;15.00;9.50;;;;;;;;5063313;28;61991;-77
2022/12/11 02:59:52;;;;;;;;;24.25;11.25;;;;;;;;5057811;28;61968;-78
2022/12/11 03:02:17;;;;;;;;;14.25;10.25;;;;;;;;5062470;28;61852;-77
2022/12/11 03:04:43;;;;;;;;;9.25;9.25;;;;;;;;5062527;28;61817;-77
2022/12/11 03:07:11;;;;;;;;;14.50;10.00;;;;;;;;5058240;28;62024;-77
2022/12/11 03:09:40;;;;;;;;;14.50;7.50;;;;;;;;5041509;28;61834;-78
2022/12/11 03:12:08;;;;;;;;;15.75;10.75;;;;;;;;5042457;28;61978;-77
2022/12/11 03:14:35;;;;;;;;;8.25;8.25;;;;;;;;5041625;28;61723;-78
2022/12/11 03:17:29;;;;;;;;;13.25;8.00;;;;;;;;5042802;28;62285;-77
2022/12/11 03:19:55;;;;;;;;;9.25;6.50;;;;;;;;5027937;28;62092;-77
2022/12/11 03:22:42;;;;;;;;;18.25;11.25;;;;;;;;5042187;28;61956;-77
2022/12/11 03:25:30;;;;;;;;;12.75;10.75;;;;;;;;5041409;28;61798;-77
2022/12/11 03:28:31;;;;;;;;;9.25;8.25;;;;;;;;5042151;28;62016;-78
2022/12/11 03:30:57;;;;;;;;;8.25;7.00;;;;;;;;4980213;28;61925;-77
2022/12/11 03:33:25;;;;;;;;;16.75;10.00;;;;;;;;4979775;28;62753;-77
2022/12/11 03:35:54;;;;;;;;;13.50;10.00;;;;;;;;4980559;28;61928;-77
2022/12/11 03:38:22;;;;;;;;;12.00;10.00;;;;;;;;4980749;28;61833;-77
2022/12/11 03:40:49;;;;;;;;;11.00;8.25;;;;;;;;4980619;28;61987;-77
2022/12/11 03:43:15;;;;;;;;;8.50;7.25;;;;;;;;4980028;28;62912;-77
2022/12/11 03:45:41;;;;;;;;;16.50;11.00;;;;;;;;4963681;28;62029;-77
2022/12/11 03:48:08;;;;;;;;;5.00;4.00;;;;;;;;4980101;28;61855;-77
2022/12/11 03:50:35;;;;;;;;;8.25;5.00;;;;;;;;4979970;28;62102;-77
2022/12/11 03:53:02;;;;;;;;;7.50;7.00;;;;;;;;4979650;28;62032;-77
2022/12/11 03:55:28;;;;;;;;;5.00;5.00;;;;;;;;4980324;28;61768;-77
2022/12/11 03:57:53;;;;;;;;;7.50;5.50;;;;;;;;4980328;28;61984;-77
2022/12/11 04:00:19;;;;;;;;;10.50;7.75;;;;;;;;4979923;28;62066;-78
2022/12/11 04:03:11;;;;;;;;;8.25;4.25;;;;;;;;4979039;28;63140;-77
2022/12/11 04:05:30;;;;;;;;;9.25;7.50;;;;;;;;5025438;28;61965;-77
2022/12/11 04:07:55;;;;;;;;;9.50;8.00;;;;;;;;5051781;28;61764;-77
2022/12/11 04:10:21;;;;;;;;;11.00;8.00;;;;;;;;5062547;28;61744;-77
2022/12/11 04:12:46;;;;;;;;;10.00;8.00;;;;;;;;5060120;28;64902;-78
2022/12/11 04:15:11;;;;;;;;;8.75;7.25;;;;;;;;5061285;28;62170;-77
2022/12/11 04:25:49;;;;;;;;;13.25;7.25;;;;;;;;5062178;28;61820;-77
2022/12/11 04:28:15;;;;;;;;;9.00;8.00;;;;;;;;5060240;28;61895;-78
2022/12/11 04:30:40;;;;;;;;;8.75;7.00;;;;;;;;5061631;28;61938;-77
2022/12/11 04:33:06;;;;;;;;;12.25;7.50;;;;;;;;5059427;28;65009;-77
2022/12/11 04:35:31;;;;;;;;;5.00;5.00;;;;;;;;5060454;28;62018;-77
2022/12/11 04:37:57;;;;;;;;;10.25;7.25;;;;;;;;5062009;28;61746;-77
2022/12/11 04:40:23;;;;;;;;;11.25;5.50;;;;;;;;5062113;28;61808;-77
2022/12/11 04:42:48;;;;;;;;;4.50;4.50;;;;;;;;5061177;28;62732;-77
2022/12/11 04:45:13;;;;;;;;;10.75;7.00;;;;;;;;5060886;28;61820;-78
2022/12/11 04:47:40;;;;;;;;;7.50;6.00;;;;;;;;5060493;28;61928;-77
2022/12/11 04:50:06;;;;;;;;;4.50;4.50;;;;;;;;5061562;28;61848;-77
2022/12/11 04:52:31;;;;;;;;;7.00;5.00;;;;;;;;5059772;28;63639;-77
2022/12/11 04:54:57;;;;;;;;;6.50;6.50;;;;;;;;5059947;28;62367;-77
2022/12/11 04:57:22;;;;;;;;;8.00;6.00;;;;;;;;5061430;28;62420;-78
2022/12/11 04:59:47;;;;;;;;;8.75;7.00;;;;;;;;5060003;28;61755;-77
2022/12/11 05:02:13;;;;;;;;;7.75;5.25;;;;;;;;5062727;28;61739;-77
2022/12/11 05:04:38;;;;;;;;;7.25;4.00;;;;;;;;5063377;28;61940;-78
2022/12/11 05:07:03;;;;;;;;;11.00;7.00;;;;;;;;5064838;28;61950;-77
2022/12/11 05:09:29;;;;;;;;;6.25;6.00;;;;;;;;5065174;28;61819;-77
2022/12/11 05:11:54;;;;;;;;;6.50;6.50;;;;;;;;5064549;28;61713;-77
2022/12/11 05:14:20;;;;;;;;;10.25;5.50;;;;;;;;5062978;28;62021;-77
2022/12/11 05:16:45;;;;;;;;;5.00;5.00;;;;;;;;5063159;28;61628;-77
2022/12/11 05:19:11;;;;;;;;;7.75;5.00;;;;;;;;5063359;28;62252;-77
2022/12/11 05:21:36;;;;;;;;;2.50;2.50;;;;;;;;5064231;28;61770;-77
2022/12/11 05:24:01;;;;;;;;;9.75;4.00;;;;;;;;5064957;28;61966;-77
2022/12/11 05:26:27;;;;;;;;;11.75;7.75;;;;;;;;5064625;28;62200;-77
2022/12/11 05:28:53;;;;;;;;;7.25;4.50;;;;;;;;5064679;28;61902;-77
2022/12/11 05:31:19;;;;;;;;;11.00;5.00;;;;;;;;5062137;28;63749;-77
2022/12/11 05:33:45;;;;;;;;;5.00;4.25;;;;;;;;5064485;28;61912;-77
2022/12/11 05:36:19;;;;;;;;;11.00;5.00;;;;;;;;5064457;28;61832;-77
2022/12/11 05:38:45;;;;;;;;;7.25;5.25;;;;;;;;5064619;28;61756;-77
2022/12/11 05:41:11;;;;;;;;;4.00;4.00;;;;;;;;5062290;28;63746;-77
2022/12/11 05:43:37;;;;;;;;;6.00;3.00;;;;;;;;5062546;28;62099;-77
2022/12/11 05:46:06;;;;;;;;;4.50;3.00;;;;;;;;5062709;28;61968;-77
2022/12/11 05:48:32;;;;;;;;;10.50;7.25;;;;;;;;5064178;28;62241;-77
2022/12/11 05:50:58;;;;;;;;;7.75;6.50;;;;;;;;5063827;28;62594;-77
2022/12/11 05:53:24;;;;;;;;;8.00;7.00;;;;;;;;5062459;28;62223;-77
2022/12/11 05:55:49;;;;;;;;;13.00;7.75;;;;;;;;5062730;28;62078;-77
2022/12/11 05:58:14;;;;;;;;;16.75;12.75;;;;;;;;5063759;28;61716;-77
2022/12/11 06:00:43;;;;;;;;;14.75;8.00;;;;;;;;5062003;28;63357;-77
2022/12/11 06:03:08;;;;;;;;;15.25;10.75;;;;;;;;5063883;28;61639;-78
2022/12/11 06:05:40;;;;;;;;;11.00;7.50;;;;;;;;5063619;28;62013;-77
2022/12/11 06:08:06;;;;;;;;;14.25;10.25;;;;;;;;5064443;28;62073;-77
2022/12/11 06:10:33;;;;;;;;;6.00;6.00;;;;;;;;5062342;28;64233;-77
2022/12/11 06:12:58;;;;;;;;;8.50;5.50;;;;;;;;5061637;28;61891;-77
2022/12/11 06:15:23;;;;;;;;;10.00;7.00;;;;;;;;5063620;28;61743;-77
2022/12/11 06:17:49;;;;;;;;;10.25;7.00;;;;;;;;5064443;28;61941;-77
2022/12/11 06:20:14;;;;;;;;;14.25;7.25;;;;;;;;5062522;28;61939;-77
2022/12/11 06:22:40;;;;;;;;;11.75;9.00;;;;;;;;5062172;28;61801;-77
2022/12/11 06:25:05;;;;;;;;;7.50;7.50;;;;;;;;5063941;28;62141;-77
2022/12/11 06:27:30;;;;;;;;;11.25;8.00;;;;;;;;5063413;28;61880;-77
2022/12/11 06:29:56;;;;;;;;;6.00;6.00;;;;;;;;5062851;28;61732;-78
2022/12/11 06:32:21;;;;;;;;;10.50;6.50;;;;;;;;5061699;28;62069;-77
2022/12/11 06:34:47;;;;;;;;;7.00;7.00;;;;;;;;5063563;28;62283;-78
2022/12/11 06:37:12;;;;;;;;;14.50;11.00;;;;;;;;5062476;28;62155;-77
2022/12/11 06:39:37;;;;;;;;;10.00;9.25;;;;;;;;5061234;28;63444;-77
2022/12/11 06:42:02;;;;;;;;;11.75;10.00;;;;;;;;5063211;28;62216;-77
2022/12/11 06:44:28;;;;;;;;;7.75;7.25;;;;;;;;5063457;28;61827;-77
2022/12/11 06:46:53;;;;;;;;;13.00;9.25;;;;;;;;5063521;28;62210;-77
2022/12/11 06:49:18;;;;;;;;;8.75;8.25;;;;;;;;5062767;28;61753;-77
2022/12/11 06:51:43;;;;;;;;;10.75;9.25;;;;;;;;5063076;28;61764;-77
2022/12/11 06:54:09;;;;;;;;;13.50;11.75;;;;;;;;5063205;28;62099;-77
2022/12/11 06:56:35;;;;;;;;;12.75;8.00;;;;;;;;5063198;28;62162;-77
2022/12/11 06:59:00;;;;;;;;;16.75;8.00;;;;;;;;5061240;28;63500;-77
2022/12/11 07:01:26;;;;;;;;;7.75;7.00;;;;;;;;5062764;28;62040;-77
2022/12/11 07:03:56;;;;;;;;;10.75;7.00;;;;;;;;5062959;28;61701;-78
2022/12/11 07:06:21;;;;;;;;;9.25;7.50;;;;;;;;5063352;28;61905;-77
2022/12/11 07:08:47;;;;;;;;;12.00;7.00;;;;;;;;5043569;28;63696;-77
2022/12/11 07:11:13;;;;;;;;;14.00;7.50;;;;;;;;5042879;28;61873;-78
2022/12/11 07:13:40;;;;;;;;;13.75;7.50;;;;;;;;5042537;28;61788;-77
2022/12/11 07:16:09;;;;;;;;;10.25;8.00;;;;;;;;5043024;28;61991;-77
2022/12/11 07:18:35;;;;;;;;;13.50;9.25;;;;;;;;5042084;28;61738;-77
2022/12/11 07:21:00;;;;;;;;;10.50;8.50;;;;;;;;5041257;28;61818;-77
2022/12/11 07:23:28;;;;;;;;;11.75;7.50;;;;;;;;5042651;28;61817;-77
2022/12/11 07:25:54;;;;;;;;;10.00;8.00;;;;;;;;5041462;28;62051;-78
2022/12/11 07:28:24;;;;;;;;;9.25;7.25;;;;;;;;5049448;28;62777;-78
2022/12/11 07:30:50;;;;;;;;;17.50;9.50;;;;;;;;5044115;28;61923;-79
2022/12/11 07:33:15;;;;;;;;;14.00;11.75;;;;;;;;5049403;28;62276;-78
2022/12/11 07:35:40;;;;;;;;;10.00;7.75;;;;;;;;5051668;28;62063;-79
2022/12/11 07:38:05;;;;;;;;;8.75;7.00;;;;;;;;5049679;28;61773;-77
2022/12/11 07:40:32;;;;;;;;;8.75;8.75;;;;;;;;5051169;28;61862;-77
2022/12/11 07:42:57;;;;;;;;;15.50;11.00;;;;;;;;5047203;28;62006;-77
2022/12/11 07:45:25;;;;;;;;;15.00;8.50;;;;;;;;5054306;28;61881;-78
2022/12/11 07:47:51;;;;;;;;;12.00;10.25;;;;;;;;5052093;28;63429;-77
2022/12/11 07:50:16;;;;;;;;;23.25;14.25;;;;;;;;5052065;28;61774;-78
2022/12/11 07:52:41;;;;;;;;;25.50;11.75;;;;;;;;5049942;28;61728;-78
2022/12/11 07:55:07;;;;;;;;;20.00;11.25;;;;;;;;5051110;28;61840;-78
2022/12/11 07:57:32;;;;;;;;;14.75;11.75;;;;;;;;5052144;28;61816;-78
2022/12/11 07:59:57;;;;;;;;;15.25;12.50;;;;;;;;5052580;28;61733;-78
2022/12/11 08:02:23;;;;;;;;;18.00;13.25;;;;;;;;5049432;28;61729;-78
2022/12/11 08:04:49;;;;;;;;;21.00;17.50;;;;;;;;5051958;28;61921;-78
2022/12/11 08:07:14;;;;;;;;;15.75;12.25;;;;;;;;5050883;28;61777;-78
2022/12/11 08:09:39;;;;;;;;;19.00;14.25;;;;;;;;5050533;28;61949;-79
2022/12/11 08:12:05;;;;;;;;;26.00;14.75;;;;;;;;5055198;28;61854;-78
2022/12/11 08:14:30;;;;;;;;;22.25;15.75;;;;;;;;5061824;28;61959;-79
2022/12/11 08:16:56;;;;;;;;;27.25;16.50;;;;;;;;5057194;28;61961;-77
2022/12/11 08:19:22;;;;;;;;;23.75;15.25;;;;;;;;5055362;28;62452;-78
2022/12/11 08:21:48;;;;;;;;;22.50;18.00;;;;;;;;5048123;28;61707;-77
2022/12/11 08:24:19;;;;;;;;;21.00;19.25;;;;;;;;5045831;28;61955;-78
2022/12/11 08:26:44;;;;;;;;;27.50;20.50;;;;;;;;5039978;28;62111;-81
2022/12/11 08:29:09;;;;;;;;;28.50;20.50;;;;;;;;5038560;28;61872;-78
2022/12/11 08:31:35;;;;;;;;;28.25;17.50;;;;;;;;5039489;28;62154;-78
2022/12/11 08:34:00;;;;;;;;;24.75;15.75;;;;;;;;5040748;28;61836;-78
2022/12/11 08:36:26;;;;;;;;;33.67;19.67;;;;;;;;5042360;28;62922;-78
2022/12/11 08:38:52;;;;;;;;;27.25;22.25;;;;;;;;5044845;28;62035;-78
2022/12/11 08:41:19;;;;;;;;;26.00;21.50;;;;;;;;5047587;28;61906;-78
2022/12/11 08:43:45;;;;;;;;;27.75;25.50;;;;;;;;5054020;28;62125;-80
2022/12/11 08:46:10;;;;;;;;;24.75;18.00;;;;;;;;5054152;28;62581;-81
2022/12/11 08:48:36;;;;;;;;;25.50;19.75;;;;;;;;5043714;28;61903;-77
2022/12/11 08:51:03;;;;;;;;;24.75;21.75;;;;;;;;5044740;28;61875;-78
2022/12/11 08:53:29;;;;;;;;;32.00;23.25;;;;;;;;5044813;28;61916;-78
2022/12/11 08:55:59;;;;;;;;;25.50;21.00;;;;;;;;5044356;28;61866;-78
2022/12/11 08:58:24;;;;;;;;;28.00;14.50;;;;;;;;5044666;28;61761;-79
2022/12/11 09:00:50;;;;;;;;;25.00;19.50;;;;;;;;5044730;28;61809;-79
2022/12/11 09:03:15;;;;;;;;;26.00;20.00;;;;;;;;5042272;28;62095;-79
2022/12/11 09:05:40;;;;;;;;;39.25;23.75;;;;;;;;5042243;28;64670;-79
2022/12/11 09:08:06;;;;;;;;;29.25;17.75;;;;;;;;5051311;28;61803;-81
2022/12/11 09:10:31;;;;;;;;;27.25;19.75;;;;;;;;5053409;28;61931;-79
2022/12/11 09:12:56;;;;;;;;;27.50;17.75;;;;;;;;5053918;28;61890;-81
2022/12/11 09:15:21;;;;;;;;;27.25;21.75;;;;;;;;5052259;28;63709;-79
2022/12/11 09:17:47;;;;;;;;;29.75;20.75;;;;;;;;5050752;28;62099;-78
2022/12/11 09:20:12;;;;;;;;;26.25;20.50;;;;;;;;5053829;28;61957;-80
2022/12/11 09:22:38;;;;;;;;;25.00;19.75;;;;;;;;5054658;28;61830;-80
2022/12/11 09:25:04;;;;;;;;;28.50;17.50;;;;;;;;5050722;28;63921;-83
2022/12/11 09:27:29;;;;;;;;;32.50;20.25;;;;;;;;5049458;28;61824;-77
2022/12/11 09:29:54;;;;;;;;;38.00;28.67;;;;;;;;5044465;28;61928;-77
2022/12/11 09:32:20;;;;;;;;;47.25;21.75;;;;;;;;5043751;28;62800;-77
2022/12/11 09:34:45;;;;;;;;;33.75;24.00;;;;;;;;5043760;28;62640;-78
2022/12/11 09:37:10;;;;;;;;;31.25;20.25;;;;;;;;5044033;28;61941;-78
2022/12/11 09:39:36;;;;;;;;;24.00;20.75;;;;;;;;5042915;28;61809;-80
2022/12/11 09:42:12;;;;;;;;;27.75;23.50;;;;;;;;5047608;28;61690;-77
2022/12/11 09:44:44;;;;;;;;;44.25;22.50;;;;;;;;5063683;28;61760;-77
2022/12/11 09:47:17;;;;;;;;;36.75;23.50;;;;;;;;5061853;28;62190;-78
2022/12/11 09:49:44;;;;;;;;;22.50;20.00;;;;;;;;5063729;28;62017;-78
2022/12/11 09:52:12;;;;;;;;;37.25;21.00;;;;;;;;5064378;28;61702;-78
2022/12/11 09:54:51;;;;;;;;;26.75;19.50;;;;;;;;5063684;28;61802;-78
2022/12/11 09:57:26;;;;;;;;;40.33;28.00;;;;;;;;5064119;28;61872;-78
2022/12/11 10:00:08;;;;;;;;;32.75;23.75;;;;;;;;5064193;28;62026;-78
2022/12/11 10:02:44;;;;;;;;;39.00;24.50;;;;;;;;5063384;28;62189;-78
2022/12/11 10:05:48;;;;;;;;;34.75;25.50;;;;;;;;5063311;28;61998;-78
2022/12/11 10:08:39;;;;;;;;;25.25;21.25;;;;;;;;5033288;28;61954;-78
2022/12/11 10:11:28;;;;;;;;;26.00;18.50;;;;;;;;5009647;28;61864;-78
2022/12/11 10:13:58;;;;;;;;;30.25;20.75;;;;;;;;5025361;28;61953;-79
2022/12/11 10:16:23;;;;;;;;;31.25;23.25;;;;;;;;5010408;28;63806;-78
2022/12/11 10:18:49;;;;;;;;;29.50;22.75;;;;;;;;5030251;28;62244;-81
2022/12/11 10:21:15;;;;;;;;;28.00;22.50;;;;;;;;5029758;28;61874;-75
2022/12/11 10:23:53;;;;;;;;;31.00;21.00;;;;;;;;5012050;28;61922;-75
2022/12/11 10:26:21;;;;;;;;;29.00;21.50;;;;;;;;5014398;28;64269;-79
2022/12/11 10:28:46;;;;;;;;;28.50;19.50;;;;;;;;5030317;28;61981;-79
2022/12/11 10:31:17;;;;;;;;;27.25;19.00;;;;;;;;5028870;28;61839;-79
2022/12/11 10:33:52;;;;;;;;;23.75;17.50;;;;;;;;5012474;28;62087;-78
2022/12/11 10:36:24;;;;;;;;;32.25;24.25;;;;;;;;5028526;28;63955;-78
2022/12/11 10:38:50;;;;;;;;;19.75;18.00;;;;;;;;5037725;28;61804;-78
2022/12/11 10:41:23;;;;;;;;;25.50;17.50;;;;;;;;5051029;28;61803;-78
2022/12/11 10:43:49;;;;;;;;;28.50;16.50;;;;;;;;5056418;28;62121;-79
2022/12/11 10:46:18;;;;;;;;;20.00;16.25;;;;;;;;5049837;28;62283;-78
2022/12/11 10:48:54;;;;;;;;;26.75;18.25;;;;;;;;5050367;28;61841;-78
2022/12/11 10:51:21;;;;;;;;;23.25;18.75;;;;;;;;5047679;28;61734;-76
2022/12/11 10:53:50;;;;;;;;;24.25;19.75;;;;;;;;5043163;28;61870;-76
2022/12/11 10:56:23;;;;;;;;;20.25;19.75;;;;;;;;5042655;28;62739;-74
2022/12/11 10:58:49;;;;;;;;;18.50;15.25;;;;;;;;5042313;28;61807;-74
2022/12/11 11:01:15;;;;;;;;;40.00;23.50;;;;;;;;5042729;28;61873;-75
2022/12/11 11:03:58;;;;;;;;;29.25;25.25;;;;;;;;5053925;28;61956;-77
2022/12/11 11:06:24;;;;;;;;;28.00;21.25;;;;;;;;5054595;28;63617;-78
2022/12/11 11:08:51;;;;;;;;;21.75;16.50;;;;;;;;5058193;28;62060;-79
2022/12/11 11:11:37;;;;;;;;;26.25;19.00;;;;;;;;5063243;28;61820;-79
2022/12/11 11:14:19;;;;;;;;;26.00;20.50;;;;;;;;5063383;28;62222;-79
2022/12/11 11:16:46;;;;;;;;;20.25;16.25;;;;;;;;5061515;28;61695;-75
2022/12/11 11:19:38;;;;;;;;;24.75;15.00;;;;;;;;5062565;28;61780;-80
2022/12/11 11:22:21;;;;;;;;;19.00;16.50;;;;;;;;5058439;28;61661;-79
2022/12/11 11:24:54;;;;;;;;;29.25;22.00;;;;;;;;5061427;28;61999;-80
2022/12/11 11:27:23;;;;;;;;;28.00;22.00;;;;;;;;5051841;28;63858;-79
2022/12/11 11:29:51;;;;;;;;;27.75;18.50;;;;;;;;5051759;28;62301;-77
2022/12/11 11:32:18;;;;;;;;;31.50;21.00;;;;;;;;5047610;28;61690;-75
2022/12/11 11:34:44;;;;;;;;;24.25;19.75;;;;;;;;5049317;28;61857;-80
2022/12/11 11:37:45;;;;;;;;;20.25;16.75;;;;;;;;5050279;28;63936;-80
2022/12/11 11:40:16;;;;;;;;;23.50;17.25;;;;;;;;5018172;28;61843;-76
2022/12/11 11:42:59;;;;;;;;;24.00;17.50;;;;;;;;5018411;28;62166;-79
2022/12/11 11:45:28;;;;;;;;;23.00;19.00;;;;;;;;5019063;28;61990;-77
2022/12/11 11:48:05;;;;;;;;;20.00;14.25;;;;;;;;5016690;28;62079;-76
2022/12/11 11:50:34;;;;;;;;;20.75;17.00;;;;;;;;5016705;28;61987;-79
2022/12/11 11:53:11;;;;;;;;;23.00;16.50;;;;;;;;5017909;28;62067;-80
2022/12/11 11:55:40;;;;;;;;;25.50;18.00;;;;;;;;5019938;28;62333;-79
2022/12/11 11:58:11;;;;;;;;;23.50;14.25;;;;;;;;5018546;28;62019;-83
2022/12/11 12:00:36;;;;;;;;;24.75;17.50;;;;;;;;5017549;28;62029;-76
2022/12/11 12:03:09;;;;;;;;;28.50;19.25;;;;;;;;5016721;28;62449;-75
2022/12/11 12:05:38;;;;;;;;;21.75;17.00;;;;;;;;5018052;28;62192;-79
2022/12/11 12:08:13;;;;;;;;;24.75;19.50;;;;;;;;5018964;28;63704;-77
2022/12/11 12:10:57;;;;;;;;;22.50;18.25;;;;;;;;5018890;28;62108;-78
2022/12/11 12:13:40;;;;;;;;;30.75;22.50;;;;;;;;5023365;28;61982;-76
2022/12/11 12:16:10;;;;;;;;;27.75;21.50;;;;;;;;5039893;28;62259;-76
2022/12/11 12:18:45;;;;;;;;;30.25;22.00;;;;;;;;5040010;28;63851;-78
2022/12/11 12:21:23;;;;;;;;;16.50;14.00;;;;;;;;5040573;28;62175;-76
2022/12/11 12:23:52;;;;;;;;;25.25;20.50;;;;;;;;5042000;28;62176;-75
2022/12/11 12:26:31;;;;;;;;;27.50;20.75;;;;;;;;5042074;28;62004;-79
2022/12/11 12:29:00;;;;;;;;;24.25;17.25;;;;;;;;5039598;28;63908;-79
2022/12/11 12:31:43;;;;;;;;;18.75;15.50;;;;;;;;5041241;28;61836;-76
2022/12/11 12:34:17;;;;;;;;;23.50;18.25;;;;;;;;5041959;28;61768;-76
2022/12/11 12:37:02;;;;;;;;;28.75;21.00;;;;;;;;5047486;28;62034;-80
2022/12/11 12:39:38;;;;;;;;;22.50;18.25;;;;;;;;5053793;28;62568;-76
2022/12/11 12:42:07;;;;;;;;;26.00;21.00;;;;;;;;5071265;28;61844;-77
2022/12/11 12:44:52;;;;;;;;;26.00;20.25;;;;;;;;5053709;28;62055;-77
2022/12/11 12:47:20;;;;;;;;;26.25;15.25;;;;;;;;5045467;28;62394;-78
2022/12/11 12:49:47;;;;;;;;;21.50;20.50;;;;;;;;5050558;28;62106;-77
2022/12/11 12:52:16;;;;;;;;;31.75;21.75;;;;;;;;5043684;28;61718;-77
2022/12/11 12:55:12;;;;;;;;;23.75;18.25;;;;;;;;5040960;28;61868;-77
2022/12/11 12:57:28;;;;;;;;;29.75;20.50;;;;;;;;5041398;28;62180;-77
2022/12/11 12:59:54;;;;;;;;;23.50;17.75;;;;;;;;5042534;28;61955;-77
2022/12/11 13:02:20;;;;;;;;;23.75;21.25;;;;;;;;5048909;28;61743;-77
2022/12/11 13:04:54;;;;;;;;;20.75;20.75;;;;;;;;5050266;28;61790;-77
2022/12/11 13:07:28;;;;;;;;;24.25;22.00;;;;;;;;5050910;28;62181;-77
2022/12/11 13:10:12;;;;;;;;;30.75;22.00;;;;;;;;5049097;28;61951;-78
2022/12/11 13:12:43;;;;;;;;;20.00;16.25;;;;;;;;5050832;28;61860;-77
2022/12/11 13:15:27;;;;;;;;;24.75;17.00;;;;;;;;5047509;28;61835;-77
2022/12/11 13:17:52;;;;;;;;;22.75;21.50;;;;;;;;5052753;28;61875;-74
2022/12/11 13:20:19;;;;;;;;;24.25;22.50;;;;;;;;5052648;28;61859;-78
2022/12/11 13:23:08;;;;;;;;;24.00;21.50;;;;;;;;5056241;28;61780;-78
2022/12/11 13:25:48;;;;;;;;;23.00;18.25;;;;;;;;5052712;28;61908;-78
2022/12/11 13:28:32;;;;;;;;;28.25;20.25;;;;;;;;5063870;28;61946;-80
2022/12/11 13:31:00;;;;;;;;;44.50;27.50;;;;;;;;5063066;28;62120;-76
2022/12/11 13:33:26;;;;;;;;;24.00;20.75;;;;;;;;5060202;28;61931;-79
2022/12/11 13:36:24;;;;;;;;;30.50;21.00;;;;;;;;5058110;28;61833;-78
2022/12/11 13:38:56;;;;;;;;;26.50;22.00;;;;;;;;5016277;28;62007;-79
2022/12/11 13:41:22;;;;;;;;;46.00;30.50;;;;;;;;4974186;28;63509;-77
2022/12/11 13:43:48;;;;;;;;;43.25;34.00;;;;;;;;4990609;28;62246;-77
2022/12/11 13:46:18;;;;;;;;;28.25;23.25;;;;;;;;4992058;28;61981;-77
2022/12/11 13:48:47;;;;;;;;;29.25;22.50;;;;;;;;4987162;28;62118;-76
2022/12/11 13:51:16;;;;;;;;;32.75;27.75;;;;;;;;4964609;28;63541;-77
2022/12/11 13:53:42;;;;;;;;;20.00;18.50;;;;;;;;4999500;28;61796;-78
2022/12/11 13:56:18;;;;;;;;;27.75;21.00;;;;;;;;4996346;28;62122;-76
2022/12/11 13:58:44;;;;;;;;;33.25;27.00;;;;;;;;4981907;28;62021;-77
2022/12/11 14:01:28;;;;;;;;;22.50;19.00;;;;;;;;4980763;28;62202;-77
2022/12/11 14:03:54;;;;;;;;;38.00;20.75;;;;;;;;4981756;28;62001;-79
2022/12/11 14:06:20;;;;;;;;;36.00;19.50;;;;;;;;4981641;28;62009;-77
2022/12/11 14:08:48;;;;;;;;;24.50;21.00;;;;;;;;4993656;28;61918;-74
2022/12/11 14:11:20;;;;;;;;;33.00;19.25;;;;;;;;4987657;28;63929;-79
2022/12/11 14:13:46;;;;;;;;;28.25;21.00;;;;;;;;5003961;28;62013;-80
2022/12/11 14:16:19;;;;;;;;;26.75;23.75;;;;;;;;5043134;28;61848;-77
2022/12/11 14:18:44;;;;;;;;;35.00;24.00;;;;;;;;5050772;28;61857;-79
2022/12/11 14:21:16;;;;;;;;;32.50;25.50;;;;;;;;5047087;28;61851;-78
2022/12/11 14:23:50;;;;;;;;;34.75;19.00;;;;;;;;5061305;28;61925;-80
2022/12/11 14:26:29;;;;;;;;;34.75;27.25;;;;;;;;5052147;28;62309;-78
2022/12/11 14:28:54;;;;;;;;;19.50;19.25;;;;;;;;5056959;28;62037;-78
2022/12/11 14:31:26;;;;;;;;;33.75;23.25;;;;;;;;5050977;28;61871;-79
2022/12/11 14:33:54;;;;;;;;;30.75;20.00;;;;;;;;5057178;28;61928;-79
2022/12/11 14:36:19;;;;;;;;;25.50;20.00;;;;;;;;5053657;28;62094;-79
2022/12/11 14:38:48;;;;;;;;;23.00;22.00;;;;;;;;5053505;28;61923;-79
2022/12/11 14:41:25;;;;;;;;;23.50;20.75;;;;;;;;5042500;28;62473;-81
2022/12/11 14:43:54;;;;;;;;;33.25;21.25;;;;;;;;5041539;28;62169;-81
2022/12/11 14:46:22;;;;;;;;;32.00;20.75;;;;;;;;5042709;28;61879;-73